createdAt,value
2017-07-27T00:02:16.880Z,17.80
2017-07-27T00:04:44.433Z,17.80
2017-07-27T00:07:11.986Z,17.80
2017-07-27T00:09:39.830Z,17.80
2017-07-27T00:12:07.410Z,17.80
2017-07-27T00:14:35.007Z,17.80
2017-07-27T00:17:02.562Z,17.80
2017-07-27T00:19:30.170Z,17.80
2017-07-27T00:21:58.830Z,17.80
2017-07-27T00:24:26.384Z,17.80
2017-07-27T00:26:53.958Z,17.90
2017-07-27T00:29:21.571Z,17.90
2017-07-27T00:31:49.138Z,17.90
2017-07-27T00:34:17.073Z,17.90
2017-07-27T00:36:44.746Z,17.90
2017-07-27T00:39:12.336Z,17.90
2017-07-27T00:41:39.972Z,17.90
2017-07-27T00:44:07.546Z,17.90
2017-07-27T00:46:35.411Z,17.90
2017-07-27T00:49:02.965Z,17.90
2017-07-27T00:51:30.516Z,17.90
2017-07-27T00:53:58.145Z,17.90
2017-07-27T00:56:25.743Z,17.90
2017-07-27T00:58:53.569Z,17.90
2017-07-27T01:01:21.117Z,17.90
2017-07-27T01:03:48.651Z,17.90
2017-07-27T01:06:16.244Z,17.90
2017-07-27T01:08:43.819Z,17.90
2017-07-27T01:11:11.759Z,17.90
2017-07-27T01:13:39.283Z,17.90
2017-07-27T01:16:06.835Z,17.90
2017-07-27T01:18:34.434Z,17.90
2017-07-27T01:21:02.007Z,17.90
2017-07-27T01:23:29.804Z,17.90
2017-07-27T01:25:57.416Z,17.90
2017-07-27T01:28:24.947Z,17.90
2017-07-27T01:30:52.522Z,17.90
2017-07-27T01:33:20.052Z,17.90
2017-07-27T01:35:47.997Z,17.90
2017-07-27T01:38:15.538Z,17.90
2017-07-27T01:40:43.081Z,17.90
2017-07-27T01:43:10.668Z,17.90
2017-07-27T01:45:39.180Z,17.90
2017-07-27T01:48:07.830Z,17.80
2017-07-27T01:50:35.389Z,17.80
2017-07-27T01:53:02.907Z,17.80
2017-07-27T01:55:30.535Z,17.80
2017-07-27T01:57:58.063Z,17.80
2017-07-27T02:00:25.899Z,17.80
2017-07-27T02:02:53.425Z,17.80
2017-07-27T02:05:22.457Z,17.80
2017-07-27T02:07:50.036Z,17.80
2017-07-27T02:10:17.586Z,17.80
2017-07-27T02:12:45.511Z,17.80
2017-07-27T02:15:13.087Z,17.80
2017-07-27T02:17:40.611Z,17.80
2017-07-27T02:20:08.187Z,17.80
2017-07-27T02:22:35.721Z,17.80
2017-07-27T02:25:03.589Z,17.80
2017-07-27T02:27:31.136Z,17.80
2017-07-27T02:29:58.733Z,17.80
2017-07-27T02:32:26.291Z,17.80
2017-07-27T02:34:53.841Z,17.80
2017-07-27T02:37:21.685Z,17.70
2017-07-27T02:39:49.242Z,17.70
2017-07-27T02:42:16.795Z,17.70
2017-07-27T02:44:44.352Z,17.80
2017-07-27T02:47:11.884Z,17.70
2017-07-27T02:49:40.548Z,17.70
2017-07-27T02:52:08.102Z,17.70
2017-07-27T02:54:35.664Z,17.70
2017-07-27T02:57:03.211Z,17.70
2017-07-27T02:59:30.782Z,17.60
2017-07-27T03:01:58.649Z,17.60
2017-07-27T03:04:26.203Z,17.60
2017-07-27T03:06:53.740Z,17.60
2017-07-27T03:09:21.322Z,17.60
2017-07-27T03:11:48.875Z,17.50
2017-07-27T03:14:16.732Z,17.50
2017-07-27T03:16:44.290Z,17.50
2017-07-27T03:19:11.831Z,17.40
2017-07-27T03:21:39.414Z,17.40
2017-07-27T03:24:06.962Z,17.40
2017-07-27T03:26:34.883Z,17.40
2017-07-27T03:29:02.457Z,17.40
2017-07-27T03:31:30.765Z,17.40
2017-07-27T03:33:58.338Z,17.40
2017-07-27T03:36:25.869Z,17.40
2017-07-27T03:38:53.898Z,17.40
2017-07-27T03:41:21.455Z,17.40
2017-07-27T03:43:49.005Z,17.40
2017-07-27T03:46:16.574Z,17.40
2017-07-27T03:48:44.111Z,17.40
2017-07-27T03:51:11.960Z,17.40
2017-07-27T03:53:39.508Z,17.30
2017-07-27T03:56:07.056Z,17.30
2017-07-27T03:58:34.626Z,17.30
2017-07-27T04:01:02.932Z,17.30
2017-07-27T04:03:30.821Z,17.20
2017-07-27T04:05:58.371Z,17.30
2017-07-27T04:08:25.901Z,17.20
2017-07-27T04:10:53.487Z,17.30
2017-07-27T04:13:21.012Z,17.20
2017-07-27T04:15:48.935Z,17.20
2017-07-27T04:18:16.463Z,17.20
2017-07-27T04:20:43.997Z,17.20
2017-07-27T04:23:12.334Z,17.20
2017-07-27T04:25:39.867Z,17.20
2017-07-27T04:28:07.754Z,17.20
2017-07-27T04:30:35.304Z,17.20
2017-07-27T04:33:02.849Z,17.20
2017-07-27T04:35:30.415Z,17.30
2017-07-27T04:37:57.961Z,17.30
2017-07-27T04:40:25.885Z,17.40
2017-07-27T04:42:53.453Z,17.40
2017-07-27T04:45:20.985Z,17.50
2017-07-27T04:47:48.536Z,17.50
2017-07-27T04:50:16.182Z,17.50
2017-07-27T04:52:44.165Z,17.50
2017-07-27T04:55:11.726Z,17.50
2017-07-27T04:57:51.312Z,17.50
2017-07-27T05:00:18.847Z,17.60
2017-07-27T05:02:46.377Z,17.60
2017-07-27T05:05:13.940Z,17.60
2017-07-27T05:07:42.190Z,17.60
2017-07-27T05:10:10.141Z,17.70
2017-07-27T05:12:37.724Z,17.80
2017-07-27T05:15:05.251Z,17.80
2017-07-27T05:17:32.838Z,17.90
2017-07-27T05:20:00.429Z,17.90
2017-07-27T05:22:28.331Z,18.00
2017-07-27T05:24:55.853Z,18.00
2017-07-27T05:27:23.398Z,18.10
2017-07-27T05:29:50.949Z,18.10
2017-07-27T05:32:18.499Z,18.20
2017-07-27T05:34:46.480Z,18.20
2017-07-27T05:37:14.787Z,18.30
2017-07-27T05:39:43.020Z,18.30
2017-07-27T05:42:10.614Z,18.40
2017-07-27T05:44:38.146Z,18.50
2017-07-27T05:47:06.799Z,18.60
2017-07-27T05:49:34.410Z,18.60
2017-07-27T05:52:02.688Z,18.80
2017-07-27T05:54:30.262Z,18.80
2017-07-27T05:56:57.836Z,18.80
2017-07-27T05:59:25.752Z,18.80
2017-07-27T06:01:54.048Z,18.90
2017-07-27T06:04:21.618Z,18.80
2017-07-27T06:06:49.191Z,18.90
2017-07-27T06:09:16.740Z,18.90
2017-07-27T06:11:46.743Z,18.90
2017-07-27T06:14:15.149Z,19.00
2017-07-27T06:16:42.732Z,19.00
2017-07-27T06:19:10.564Z,19.00
2017-07-27T06:21:38.100Z,19.10
2017-07-27T06:24:06.042Z,19.20
2017-07-27T06:26:33.588Z,19.20
2017-07-27T06:29:01.141Z,19.20
2017-07-27T06:31:28.812Z,19.30
2017-07-27T06:33:56.357Z,19.30
2017-07-27T06:36:24.318Z,19.30
2017-07-27T06:38:51.899Z,19.30
2017-07-27T06:41:19.492Z,19.30
2017-07-27T06:43:47.102Z,19.30
2017-07-27T06:46:14.696Z,19.30
2017-07-27T06:48:42.617Z,19.40
2017-07-27T06:51:10.930Z,19.50
2017-07-27T06:53:38.527Z,19.50
2017-07-27T06:56:06.142Z,19.60
2017-07-27T06:58:33.835Z,19.60
2017-07-27T07:01:01.720Z,19.70
2017-07-27T07:03:29.314Z,19.80
2017-07-27T07:05:57.695Z,20.00
2017-07-27T07:08:25.260Z,19.90
2017-07-27T07:10:52.793Z,20.00
2017-07-27T07:13:20.636Z,20.10
2017-07-27T07:15:48.180Z,20.20
2017-07-27T07:18:15.720Z,20.40
2017-07-27T07:20:43.275Z,20.40
2017-07-27T07:23:10.806Z,20.50
2017-07-27T07:25:38.790Z,20.60
2017-07-27T07:28:07.104Z,20.80
2017-07-27T07:30:34.622Z,20.80
2017-07-27T07:33:02.955Z,20.90
2017-07-27T07:35:30.528Z,20.90
2017-07-27T07:37:58.474Z,21.10
2017-07-27T07:40:26.139Z,21.20
2017-07-27T07:42:53.663Z,21.30
2017-07-27T07:45:21.222Z,21.40
2017-07-27T07:47:48.792Z,21.50
2017-07-27T07:50:16.709Z,21.60
2017-07-27T07:52:44.261Z,21.70
2017-07-27T07:55:11.798Z,21.80
2017-07-27T07:57:39.388Z,21.90
2017-07-27T08:00:06.916Z,22.10
2017-07-27T08:02:34.920Z,22.20
2017-07-27T08:05:02.479Z,22.30
2017-07-27T08:07:30.021Z,22.30
2017-07-27T08:10:09.276Z,22.50
2017-07-27T08:12:36.820Z,22.70
2017-07-27T08:15:04.837Z,22.80
2017-07-27T08:17:33.160Z,23.00
2017-07-27T08:20:00.698Z,23.00
2017-07-27T08:22:28.870Z,23.00
2017-07-27T08:24:56.404Z,23.10
2017-07-27T08:27:25.172Z,23.20
2017-07-27T08:29:52.717Z,23.20
2017-07-27T08:32:20.264Z,23.30
2017-07-27T08:34:47.836Z,23.30
2017-07-27T08:37:15.387Z,23.40
2017-07-27T08:39:43.225Z,23.50
2017-07-27T08:42:10.853Z,23.50
2017-07-27T08:44:38.395Z,23.50
2017-07-27T08:47:05.943Z,23.50
2017-07-27T08:49:33.495Z,23.60
2017-07-27T08:52:01.437Z,23.70
2017-07-27T08:54:28.986Z,23.80
2017-07-27T08:56:56.549Z,23.90
2017-07-27T08:59:24.151Z,23.90
2017-07-27T09:01:51.760Z,23.90
2017-07-27T09:04:20.405Z,24.00
2017-07-27T09:06:48.638Z,24.00
2017-07-27T09:09:16.221Z,24.00
2017-07-27T09:11:43.847Z,24.10
2017-07-27T09:14:11.389Z,24.20
2017-07-27T09:16:39.233Z,24.20
2017-07-27T09:19:06.887Z,24.20
2017-07-27T09:21:34.426Z,24.30
2017-07-27T09:24:01.988Z,24.40
2017-07-27T09:26:29.506Z,24.60
2017-07-27T09:28:58.106Z,24.80
2017-07-27T09:31:25.657Z,24.80
2017-07-27T09:33:53.603Z,25.00
2017-07-27T09:36:21.195Z,25.10
2017-07-27T09:38:49.497Z,25.20
2017-07-27T09:41:17.464Z,25.20
2017-07-27T09:43:44.997Z,25.30
2017-07-27T09:46:12.563Z,25.40
2017-07-27T09:48:40.160Z,25.50
2017-07-27T09:51:07.701Z,25.70
2017-07-27T09:53:35.870Z,25.80
2017-07-27T09:56:03.430Z,26.00
2017-07-27T09:58:30.967Z,26.10
2017-07-27T10:00:58.557Z,26.20
2017-07-27T10:03:27.169Z,26.40
2017-07-27T10:05:55.130Z,26.50
2017-07-27T10:08:22.647Z,26.60
2017-07-27T10:10:50.178Z,26.70
2017-07-27T10:13:17.756Z,26.70
2017-07-27T10:15:46.100Z,27.00
2017-07-27T10:18:13.977Z,27.00
2017-07-27T10:20:41.510Z,27.20
2017-07-27T10:23:09.064Z,27.40
2017-07-27T10:25:36.604Z,27.60
2017-07-27T10:28:04.161Z,27.70
2017-07-27T10:30:32.076Z,27.70
2017-07-27T10:32:59.614Z,27.80
2017-07-27T10:35:27.186Z,27.70
2017-07-27T10:37:54.758Z,27.70
2017-07-27T10:40:22.316Z,27.60
2017-07-27T10:42:50.202Z,27.50
2017-07-27T10:45:17.729Z,27.50
2017-07-27T10:47:45.278Z,27.50
2017-07-27T10:50:12.820Z,27.50
2017-07-27T10:52:40.389Z,27.50
2017-07-27T10:55:09.035Z,27.50
2017-07-27T10:57:36.594Z,27.50
2017-07-27T11:00:04.116Z,27.30
2017-07-27T11:02:31.667Z,27.20
2017-07-27T11:04:59.206Z,27.00
2017-07-27T11:07:27.136Z,26.80
2017-07-27T11:09:54.676Z,26.50
2017-07-27T11:12:22.213Z,26.40
2017-07-27T11:14:49.761Z,26.10
2017-07-27T11:17:17.304Z,25.90
2017-07-27T11:19:45.371Z,25.60
2017-07-27T11:22:12.923Z,25.50
2017-07-27T11:24:40.455Z,25.30
2017-07-27T11:27:08.029Z,25.30
2017-07-27T11:29:35.547Z,25.30
2017-07-27T11:32:03.420Z,25.30
2017-07-27T11:34:31.176Z,25.40
2017-07-27T11:36:58.738Z,25.40
2017-07-27T11:39:26.328Z,25.40
2017-07-27T11:41:53.858Z,25.20
2017-07-27T11:44:22.493Z,24.90
2017-07-27T11:46:50.043Z,24.80
2017-07-27T11:49:17.582Z,24.70
2017-07-27T11:51:45.161Z,24.60
2017-07-27T11:54:12.717Z,24.50
2017-07-27T11:56:40.629Z,24.40
2017-07-27T11:59:08.159Z,24.30
2017-07-27T12:01:35.692Z,24.00
2017-07-27T12:04:03.678Z,23.80
2017-07-27T12:06:31.213Z,23.50
2017-07-27T12:08:59.045Z,23.30
2017-07-27T12:11:26.602Z,23.10
2017-07-27T12:13:55.198Z,22.80
2017-07-27T12:16:22.775Z,22.80
2017-07-27T12:18:51.069Z,22.90
2017-07-27T12:21:18.986Z,22.80
2017-07-27T12:23:46.773Z,22.90
2017-07-27T12:26:15.352Z,23.00
2017-07-27T12:28:42.913Z,22.90
2017-07-27T12:31:10.445Z,23.00
2017-07-27T12:33:38.276Z,23.00
2017-07-27T12:36:06.623Z,23.10
2017-07-27T12:38:34.203Z,23.10
2017-07-27T12:41:01.815Z,23.10
2017-07-27T12:43:29.373Z,23.10
2017-07-27T12:45:57.213Z,23.10
2017-07-27T12:48:24.918Z,23.10
2017-07-27T12:50:52.497Z,23.10
2017-07-27T12:53:20.830Z,23.10
2017-07-27T12:55:48.356Z,23.10
2017-07-27T12:58:16.223Z,23.00
2017-07-27T13:00:43.775Z,23.00
2017-07-27T13:03:11.353Z,22.90
2017-07-27T13:05:38.949Z,22.90
2017-07-27T13:08:06.488Z,22.90
2017-07-27T13:10:34.438Z,23.00
2017-07-27T13:13:02.020Z,22.90
2017-07-27T13:15:29.534Z,22.90
2017-07-27T13:17:57.098Z,22.80
2017-07-27T13:20:24.645Z,22.70
2017-07-27T13:22:52.591Z,22.70
2017-07-27T13:25:20.147Z,22.70
2017-07-27T13:27:47.981Z,22.60
2017-07-27T13:30:15.574Z,22.60
2017-07-27T13:32:43.157Z,22.70
2017-07-27T13:35:10.998Z,22.90
2017-07-27T13:37:38.535Z,23.00
2017-07-27T13:40:06.074Z,23.20
2017-07-27T13:42:34.408Z,23.40
2017-07-27T13:45:01.973Z,23.40
2017-07-27T13:47:31.745Z,23.50
2017-07-27T13:49:59.334Z,23.50
2017-07-27T13:52:26.903Z,23.50
2017-07-27T13:54:54.464Z,23.40
2017-07-27T13:57:21.996Z,23.30
2017-07-27T13:59:49.892Z,23.30
2017-07-27T14:02:17.458Z,23.30
2017-07-27T14:04:45.002Z,23.40
2017-07-27T14:07:12.579Z,23.60
2017-07-27T14:09:40.119Z,23.70
2017-07-27T14:12:08.050Z,23.80
2017-07-27T14:14:36.370Z,23.90
2017-07-27T14:17:04.194Z,23.80
2017-07-27T14:19:32.541Z,23.90
2017-07-27T14:22:00.070Z,23.90
2017-07-27T14:24:28.087Z,24.10
2017-07-27T14:26:55.690Z,24.40
2017-07-27T14:29:23.222Z,24.80
2017-07-27T14:31:51.573Z,25.60
2017-07-27T14:34:19.113Z,25.50
2017-07-27T14:36:46.989Z,25.80
2017-07-27T14:39:14.558Z,25.80
2017-07-27T14:41:42.897Z,25.30
2017-07-27T14:44:10.447Z,25.30
2017-07-27T14:46:38.771Z,24.90
2017-07-27T14:49:06.712Z,24.90
2017-07-27T14:51:35.247Z,24.80
2017-07-27T14:54:02.786Z,24.70
2017-07-27T14:56:30.348Z,24.60
2017-07-27T14:58:57.863Z,24.50
2017-07-27T15:01:29.042Z,24.40
2017-07-27T15:03:56.575Z,24.40
2017-07-27T15:06:24.134Z,24.40
2017-07-27T15:08:51.698Z,24.50
2017-07-27T15:11:19.225Z,24.60
2017-07-27T15:13:47.908Z,25.00
2017-07-27T15:16:15.478Z,24.90
2017-07-27T15:18:43.791Z,26.60
2017-07-27T15:21:11.354Z,26.60
2017-07-27T15:23:38.879Z,27.50
2017-07-27T15:26:07.567Z,28.20
2017-07-27T15:28:35.140Z,28.20
2017-07-27T15:31:02.798Z,28.10
2017-07-27T15:33:30.405Z,27.90
2017-07-27T15:35:57.938Z,27.70
2017-07-27T15:38:25.844Z,27.50
2017-07-27T15:40:53.410Z,27.20
2017-07-27T15:43:20.941Z,27.00
2017-07-27T15:45:48.511Z,26.80
2017-07-27T15:48:16.046Z,26.50
2017-07-27T15:50:43.966Z,26.30
2017-07-27T15:53:12.005Z,26.00
2017-07-27T15:55:39.578Z,25.80
2017-07-27T15:58:07.192Z,25.50
2017-07-27T16:00:34.891Z,25.30
2017-07-27T16:03:02.790Z,25.10
2017-07-27T16:05:30.358Z,24.90
2017-07-27T16:07:57.893Z,24.60
2017-07-27T16:10:25.488Z,24.50
2017-07-27T16:12:53.792Z,24.30
2017-07-27T16:15:21.670Z,24.30
2017-07-27T16:17:49.196Z,24.30
2017-07-27T16:20:17.511Z,24.30
2017-07-27T16:22:45.114Z,24.30
2017-07-27T16:25:12.669Z,24.30
2017-07-27T16:27:40.553Z,24.30
2017-07-27T16:30:08.093Z,24.30
2017-07-27T16:32:35.686Z,24.30
2017-07-27T16:35:04.042Z,24.20
2017-07-27T16:37:31.582Z,24.20
2017-07-27T16:39:59.468Z,24.20
2017-07-27T16:42:26.992Z,24.10
2017-07-27T16:44:54.575Z,24.10
2017-07-27T16:47:22.218Z,24.10
2017-07-27T16:49:49.755Z,24.00
2017-07-27T16:52:17.644Z,24.00
2017-07-27T16:54:45.189Z,24.00
2017-07-27T16:57:12.783Z,23.90
2017-07-27T16:59:40.351Z,23.90
2017-07-27T17:02:07.892Z,23.80
2017-07-27T17:04:35.782Z,23.70
2017-07-27T17:07:03.359Z,23.50
2017-07-27T17:09:30.898Z,23.20
2017-07-27T17:11:58.483Z,22.70
2017-07-27T17:14:26.069Z,22.30
2017-07-27T17:16:53.934Z,22.00
2017-07-27T17:19:21.499Z,21.80
2017-07-27T17:21:49.078Z,21.60
2017-07-27T17:24:16.704Z,21.50
2017-07-27T17:26:44.318Z,21.50
2017-07-27T17:29:12.298Z,21.50
2017-07-27T17:31:39.831Z,21.50
2017-07-27T17:34:07.389Z,21.40
2017-07-27T17:36:35.817Z,21.50
2017-07-27T17:39:03.492Z,21.50
2017-07-27T17:41:31.358Z,21.50
2017-07-27T17:44:05.285Z,21.60
2017-07-27T17:49:28.624Z,21.70
2017-07-27T17:54:45.065Z,21.70
2017-07-27T17:57:13.507Z,21.70
2017-07-27T17:59:41.908Z,21.80
2017-07-27T18:02:09.518Z,21.80
2017-07-27T18:04:37.167Z,21.80
2017-07-27T18:07:11.643Z,21.80
2017-07-27T18:09:41.384Z,21.80
2017-07-27T18:12:20.285Z,21.80
2017-07-27T18:14:51.804Z,21.80
2017-07-27T18:17:20.901Z,21.80
2017-07-27T18:19:57.270Z,21.80
2017-07-27T18:22:25.475Z,21.80
2017-07-27T18:24:53.102Z,21.80
2017-07-27T18:27:20.984Z,21.80
2017-07-27T18:29:48.631Z,21.80
2017-07-27T18:32:17.036Z,21.80
2017-07-27T18:34:44.635Z,21.80
2017-07-27T18:37:12.229Z,21.90
2017-07-27T18:39:40.894Z,21.90
2017-07-27T18:42:08.511Z,21.80
2017-07-27T18:44:36.104Z,21.80
2017-07-27T18:47:03.724Z,21.80
2017-07-27T18:49:32.014Z,21.70
2017-07-27T18:52:01.649Z,21.70
2017-07-27T18:54:29.265Z,21.70
2017-07-27T18:56:56.838Z,21.70
2017-07-27T18:59:24.438Z,21.60
2017-07-27T19:01:52.026Z,21.50
2017-07-27T19:04:20.778Z,21.40
2017-07-27T19:06:48.634Z,21.40
2017-07-27T19:09:16.205Z,21.40
2017-07-27T19:11:43.846Z,21.30
2017-07-27T19:14:11.422Z,21.30
2017-07-27T19:16:39.279Z,21.30
2017-07-27T19:19:06.947Z,21.20
2017-07-27T19:21:34.545Z,21.20
2017-07-27T19:24:02.163Z,21.10
2017-07-27T19:26:29.763Z,21.10
2017-07-27T19:28:57.642Z,21.10
2017-07-27T19:31:25.260Z,21.00
2017-07-27T19:33:52.835Z,21.00
2017-07-27T19:36:20.476Z,21.00
2017-07-27T19:38:48.062Z,21.00
2017-07-27T19:41:15.951Z,21.00
2017-07-27T19:43:44.418Z,20.90
2017-07-27T19:46:13.401Z,20.90
2017-07-27T19:48:41.054Z,20.80
2017-07-27T19:51:11.684Z,20.80
2017-07-27T19:53:39.568Z,20.70
2017-07-27T19:56:07.143Z,20.70
2017-07-27T19:58:34.703Z,20.70
2017-07-27T20:01:02.313Z,20.70
2017-07-27T20:03:29.874Z,20.60
2017-07-27T20:05:57.836Z,20.60
2017-07-27T20:08:25.424Z,20.50
2017-07-27T20:10:53.002Z,20.50
2017-07-27T20:13:20.667Z,20.50
2017-07-27T20:15:48.220Z,20.40
2017-07-27T20:18:16.245Z,20.40
2017-07-27T20:20:44.598Z,20.30
2017-07-27T20:23:12.154Z,20.30
2017-07-27T20:25:39.736Z,20.30
2017-07-27T20:28:07.371Z,20.30
2017-07-27T20:30:35.242Z,20.20
2017-07-27T20:33:02.957Z,20.20
2017-07-27T20:35:30.541Z,20.20
2017-07-27T20:37:58.188Z,20.10
2017-07-27T20:40:25.749Z,20.10
2017-07-27T20:42:53.830Z,20.10
2017-07-27T20:45:21.488Z,20.00
2017-07-27T20:47:49.074Z,20.10
2017-07-27T20:50:16.713Z,20.10
2017-07-27T20:52:44.272Z,20.10
2017-07-27T20:55:12.156Z,20.10
2017-07-27T20:57:40.517Z,20.10
2017-07-27T21:00:08.169Z,20.00
2017-07-27T21:02:35.744Z,20.10
2017-07-27T21:05:03.278Z,20.00
2017-07-27T21:07:31.222Z,20.00
2017-07-27T21:09:58.775Z,20.00
2017-07-27T21:12:27.142Z,20.00
2017-07-27T21:14:54.786Z,20.00
2017-07-27T21:17:22.324Z,20.00
2017-07-27T21:19:50.222Z,20.00
2017-07-27T21:22:17.785Z,20.00
2017-07-27T21:24:45.340Z,20.00
2017-07-27T21:27:12.915Z,20.00
2017-07-27T21:29:40.479Z,20.00
2017-07-27T21:32:08.357Z,20.00
2017-07-27T21:34:38.665Z,20.00
2017-07-27T21:37:06.208Z,20.00
2017-07-27T21:39:33.848Z,20.00
2017-07-27T21:42:01.461Z,20.00
2017-07-27T21:44:29.314Z,20.00
2017-07-27T21:46:56.864Z,20.00
2017-07-27T21:49:24.412Z,20.00
2017-07-27T21:51:52.088Z,20.00
2017-07-27T21:54:19.645Z,20.00
2017-07-27T21:56:47.538Z,20.00
2017-07-27T21:59:15.162Z,20.00
2017-07-27T22:01:42.712Z,20.00
2017-07-27T22:04:10.249Z,20.00
2017-07-27T22:06:38.545Z,20.00
2017-07-27T22:09:06.396Z,20.00
2017-07-27T22:11:34.723Z,19.90
2017-07-27T22:14:02.379Z,19.90
2017-07-27T22:16:29.942Z,19.90
2017-07-27T22:18:57.493Z,19.90
2017-07-27T22:21:25.381Z,19.90
2017-07-27T22:23:56.160Z,19.90
2017-07-27T22:26:24.527Z,19.90
2017-07-27T22:28:52.097Z,19.90
2017-07-27T22:31:20.412Z,19.80
2017-07-27T22:33:49.243Z,19.80
2017-07-27T22:36:16.787Z,19.80
2017-07-27T22:38:44.402Z,19.80
2017-07-27T22:41:12.712Z,19.80
2017-07-27T22:43:40.310Z,19.80
2017-07-27T22:46:08.151Z,19.80
2017-07-27T22:48:35.719Z,19.80
2017-07-27T22:51:03.270Z,19.80
2017-07-27T22:53:30.841Z,19.80
2017-07-27T22:55:58.368Z,19.80
2017-07-27T22:58:26.250Z,19.80
2017-07-27T23:00:53.814Z,19.80
2017-07-27T23:03:21.342Z,19.80
2017-07-27T23:05:48.906Z,19.80
2017-07-27T23:08:19.892Z,19.80
2017-07-27T23:10:47.727Z,19.90
2017-07-27T23:13:15.262Z,19.90
2017-07-27T23:15:43.542Z,19.90
2017-07-27T23:18:11.856Z,19.90
2017-07-27T23:20:39.679Z,19.90
2017-07-27T23:23:07.969Z,19.90
2017-07-27T23:25:35.590Z,19.90
2017-07-27T23:28:03.120Z,19.90
2017-07-27T23:30:30.721Z,19.80
2017-07-27T23:32:58.303Z,19.80
2017-07-27T23:35:26.906Z,19.80
2017-07-27T23:37:54.457Z,19.80
2017-07-27T23:40:21.984Z,19.80
2017-07-27T23:42:49.557Z,19.80
2017-07-27T23:45:17.110Z,19.70
2017-07-27T23:47:44.961Z,19.70
2017-07-27T23:50:12.503Z,19.70
2017-07-27T23:52:40.045Z,19.80
2017-07-27T23:55:07.620Z,19.80
2017-07-27T23:57:35.173Z,19.80
